Aviation Digital Data Service (ADDS)

Output produced by TAFs form (2349 UTC 24 October 2014)
found at http://aviationweather.gov/adds/tafs/
 
KLVS 242321Z 2500/2524 18009KT P6SM SKC 
     FM250400 VRB05KT P6SM SKC 
     FM251700 20010KT P6SM SKC 
     FM252000 22014G22KT P6SM SKC